Braytown, Indiana
Current Conditions -  °F | °C
As of 5:13 AM on Thursday 29 Jan 2015 (Local Time) from KIMS Reporting Station
Overcast Overcast  
Wind Chill: 27°   Ceiling: 7500
Heat Index: 36°   Visibility: 7mi
Dew Point: 28°   Wind: 14mph
Humidity: 75%   Direction: 150°SSE
Pressure: 29.94"   Gusts: 18mph
Location:  38.7865°N, 85.1073°W
Report Text: KIMS 291013Z AUTO 15012G16KT 7SM SCT049 OVC075 02/M02 A2994 RMK AO1
Loading
Personal Weather Stations






























Interactive Weather Map New forecast layout! Learn more

10-Day Weather Forecast

Advertisements
Track Severe Weather on mobile